Time;durP1;ratioP1;P1;durP2;ratioP2;P2;SDS_P1;SDS_P2;PMS_P1;PMS_P2;Temp;Humidity;BMP_temperature;BMP_pressure;BME280_temperature;BME280_humidity;BME280_pressure;Samples;Min_cycle;Max_cycle;Signal;HPM_P1;HPM_P2
2023/05/01 00:01:31;;;;;;;1.58;1.00;;;18.70;58.50;;;;;;5039493;28;45351;-71
2023/05/01 00:03:59;;;;;;;1.13;0.93;;;18.60;58.40;;;;;;5039301;28;45266;-71
2023/05/01 00:06:26;;;;;;;1.77;0.90;;;18.70;58.50;;;;;;5042088;28;47534;-72
2023/05/01 00:08:53;;;;;;;1.63;1.00;;;18.60;58.50;;;;;;5045978;28;45317;-71
2023/05/01 00:11:20;;;;;;;1.38;0.77;;;18.60;58.50;;;;;;5045837;28;45457;-72
2023/05/01 00:13:47;;;;;;;1.70;0.95;;;18.60;58.40;;;;;;5045771;28;45359;-72
2023/05/01 00:16:15;;;;;;;1.23;0.93;;;18.60;58.30;;;;;;5041487;28;46070;-70
2023/05/01 00:18:42;;;;;;;1.55;0.93;;;18.60;58.50;;;;;;5045715;28;45255;-72
2023/05/01 00:21:10;;;;;;;2.00;1.10;;;18.60;58.50;;;;;;5045640;28;45378;-71
2023/05/01 00:23:37;;;;;;;0.77;0.65;;;18.60;58.50;;;;;;5045646;28;45418;-71
2023/05/01 00:26:04;;;;;;;1.98;1.00;;;18.60;58.70;;;;;;5045205;28;48005;-71
2023/05/01 00:28:31;;;;;;;1.70;0.88;;;18.60;58.70;;;;;;5045582;28;45478;-72
2023/05/01 00:30:58;;;;;;;1.60;0.88;;;18.60;58.60;;;;;;5045689;27;45373;-71
2023/05/01 00:33:24;;;;;;;1.15;0.82;;;18.60;58.70;;;;;;5041459;27;45397;-71
2023/05/01 00:35:51;;;;;;;1.40;0.80;;;18.60;58.70;;;;;;5044773;28;46630;-72
2023/05/01 00:38:19;;;;;;;1.70;1.00;;;18.60;58.70;;;;;;5045438;28;45606;-71
2023/05/01 00:40:47;;;;;;;1.33;0.90;;;18.60;59.90;;;;;;5045843;28;45481;-70
2023/05/01 00:43:14;;;;;;;0.95;0.70;;;18.70;58.70;;;;;;5041558;28;45397;-71
2023/05/01 00:45:44;;;;;;;1.67;1.27;;;18.60;58.70;;;;;;5043455;28;46851;-72
2023/05/01 00:48:12;;;;;;;1.00;0.80;;;18.60;58.50;;;;;;5043782;28;45405;-71
2023/05/01 00:50:39;;;;;;;2.50;1.15;;;18.60;58.50;;;;;;5040215;28;45384;-71
2023/05/01 00:53:06;;;;;;;1.58;0.90;;;18.60;58.40;;;;;;5045285;27;45325;-71
2023/05/01 00:55:35;;;;;;;1.90;0.90;;;18.60;58.50;;;;;;5044721;28;47083;-71
2023/05/01 00:58:02;;;;;;;1.08;0.70;;;18.60;58.60;;;;;;5044963;28;45321;-71
2023/05/01 01:00:29;;;;;;;1.00;0.90;;;18.60;58.50;;;;;;5045236;28;45393;-71
2023/05/01 01:02:56;;;;;;;1.45;0.98;;;18.60;58.60;;;;;;5045124;28;45551;-71
2023/05/01 01:05:27;;;;;;;1.67;0.90;;;18.60;58.40;;;;;;5044311;28;46444;-72
2023/05/01 01:08:05;;;;;;;2.17;1.02;;;18.60;58.50;;;;;;5047237;28;46147;-71
2023/05/01 01:10:43;;;;;;;1.25;0.90;;;18.60;58.60;;;;;;5045516;28;45438;-71
2023/05/01 01:13:14;;;;;;;1.55;0.90;;;18.60;58.60;;;;;;5044644;28;45313;-71
2023/05/01 01:15:46;;;;;;;1.35;0.80;;;18.60;58.60;;;;;;5044010;28;48485;-72
2023/05/01 01:18:17;;;;;;;1.48;0.95;;;18.60;58.60;;;;;;5033817;28;45460;-71
2023/05/01 01:20:49;;;;;;;1.70;0.82;;;18.60;58.60;;;;;;5041562;28;45324;-71
2023/05/01 01:23:47;;;;;;;3.42;0.93;;;18.60;58.50;;;;;;5033751;28;45382;-71
2023/05/01 01:26:29;;;;;;;2.22;1.05;;;18.60;58.50;;;;;;5024355;28;48092;-71
2023/05/01 01:29:21;;;;;;;1.13;0.77;;;18.60;58.40;;;;;;5040994;28;45298;-71
2023/05/01 01:32:01;;;;;;;1.80;1.10;;;18.60;58.30;;;;;;5021220;28;45464;-71
2023/05/01 01:34:34;;;;;;;1.38;0.80;;;18.60;58.50;;;;;;5040734;28;45386;-71
2023/05/01 01:37:04;;;;;;;2.20;1.02;;;18.60;58.60;;;;;;5035553;28;45442;-71
2023/05/01 01:39:43;;;;;;;1.67;1.00;;;18.60;58.60;;;;;;5041632;27;45476;-72
2023/05/01 01:42:16;;;;;;;0.60;0.60;;;18.60;58.60;;;;;;5032388;28;45432;-71
2023/05/01 01:44:50;;;;;;;1.10;0.85;;;18.60;58.70;;;;;;5040456;28;45379;-71
2023/05/01 01:47:19;;;;;;;1.33;0.80;;;18.60;58.70;;;;;;5040045;27;45491;-71
2023/05/01 01:49:51;;;;;;;0.90;0.80;;;18.60;58.80;;;;;;5040877;27;45467;-70
2023/05/01 01:52:20;;;;;;;1.13;0.80;;;18.60;58.90;;;;;;5033867;28;45330;-70
2023/05/01 01:54:51;;;;;;;0.90;0.68;;;18.60;58.90;;;;;;5040675;28;45385;-71
2023/05/01 01:57:21;;;;;;;1.42;0.82;;;18.60;59.00;;;;;;5040928;28;47677;-70
2023/05/01 01:59:50;;;;;;;2.55;1.00;;;18.60;59.00;;;;;;5037498;28;45985;-71
2023/05/01 02:02:19;;;;;;;1.05;0.75;;;18.60;59.00;;;;;;5041168;28;45503;-71
2023/05/01 02:04:49;;;;;;;1.08;0.77;;;18.60;59.00;;;;;;5041011;27;45297;-72
2023/05/01 02:07:17;;;;;;;1.13;0.90;;;18.60;59.00;;;;;;5032558;28;47238;-71
2023/05/01 02:09:45;;;;;;;1.33;0.80;;;18.60;59.00;;;;;;5040849;28;45388;-70
2023/05/01 02:12:14;;;;;;;1.35;0.90;;;18.60;58.90;;;;;;5040825;28;45451;-71
2023/05/01 02:14:42;;;;;;;1.23;0.70;;;18.60;59.00;;;;;;5036718;28;45295;-71
2023/05/01 02:17:09;;;;;;;0.85;0.70;;;18.60;59.00;;;;;;5039935;28;47561;-71
2023/05/01 02:19:39;;;;;;;1.27;0.75;;;18.60;59.00;;;;;;5040832;28;45420;-71
2023/05/01 02:22:08;;;;;;;1.10;0.80;;;18.60;59.10;;;;;;5040548;28;45239;-71
2023/05/01 02:24:37;;;;;;;1.42;0.80;;;18.60;59.10;;;;;;5040389;28;45380;-71
2023/05/01 02:27:08;;;;;;;1.00;0.70;;;18.60;59.10;;;;;;5040081;28;47207;-71
2023/05/01 02:29:35;;;;;;;1.42;0.80;;;18.60;59.10;;;;;;5040733;28;45340;-71
2023/05/01 02:32:02;;;;;;;1.13;0.60;;;18.60;59.20;;;;;;5039351;28;45253;-71
2023/05/01 02:34:29;;;;;;;1.35;0.85;;;18.60;59.10;;;;;;5040311;28;45302;-71
2023/05/01 02:36:55;;;;;;;1.90;0.68;;;18.60;59.10;;;;;;5040335;28;47146;-71
2023/05/01 02:39:24;;;;;;;0.75;0.70;;;18.60;59.30;;;;;;5040469;28;45304;-71
2023/05/01 02:41:52;;;;;;;1.20;0.85;;;18.60;59.20;;;;;;5040326;28;45436;-71
2023/05/01 02:44:21;;;;;;;1.20;0.80;;;18.60;59.20;;;;;;5040219;27;45431;-71
2023/05/01 02:46:49;;;;;;;1.13;0.90;;;18.60;59.30;;;;;;5037173;28;48229;-71
2023/05/01 02:49:18;;;;;;;1.40;0.75;;;18.60;59.40;;;;;;5039491;28;46004;-71
2023/05/01 02:51:47;;;;;;;1.20;0.80;;;18.60;59.60;;;;;;5040584;28;45252;-71
2023/05/01 02:54:14;;;;;;;1.15;0.70;;;18.60;59.70;;;;;;5031994;28;45350;-71
2023/05/01 02:56:42;;;;;;;0.90;0.82;;;18.60;59.50;;;;;;5039641;28;46454;-70
2023/05/01 02:59:09;;;;;;;1.35;0.70;;;18.50;59.40;;;;;;5040317;28;45306;-71
2023/05/01 03:01:36;;;;;;;2.25;1.10;;;18.50;59.40;;;;;;5040062;28;45372;-70
2023/05/01 03:04:03;;;;;;;1.73;0.80;;;18.50;59.30;;;;;;5040302;28;45432;-70
2023/05/01 03:06:30;;;;;;;2.72;0.88;;;18.50;59.70;;;;;;5038579;28;45719;-72
2023/05/01 03:08:57;;;;;;;1.33;0.80;;;18.50;59.20;;;;;;5040387;28;45310;-70
2023/05/01 03:11:24;;;;;;;0.88;0.70;;;18.50;59.20;;;;;;5040122;28;45419;-71
2023/05/01 03:13:52;;;;;;;0.77;0.68;;;18.50;59.00;;;;;;5039727;28;45689;-72
2023/05/01 03:16:19;;;;;;;1.50;0.90;;;18.50;59.10;;;;;;5039784;27;45498;-71
2023/05/01 03:18:45;;;;;;;1.00;0.80;;;18.50;59.20;;;;;;5040309;28;45428;-70
2023/05/01 03:21:12;;;;;;;1.17;0.85;;;18.50;59.30;;;;;;5040506;27;45424;-71
2023/05/01 03:23:39;;;;;;;1.65;1.00;;;18.50;59.40;;;;;;5035733;28;45285;-71
2023/05/01 03:26:06;;;;;;;1.67;1.00;;;18.50;59.20;;;;;;5039148;27;45399;-72
2023/05/01 03:28:33;;;;;;;1.85;0.82;;;18.50;59.30;;;;;;5039581;28;45443;-71
2023/05/01 03:31:01;;;;;;;1.45;0.90;;;18.50;59.10;;;;;;5040125;28;45263;-70
2023/05/01 03:33:28;;;;;;;1.63;1.00;;;18.60;59.30;;;;;;5039789;28;45229;-71
2023/05/01 03:36:02;;;;;;;1.50;0.90;;;18.60;59.20;;;;;;5039262;28;46609;-71
2023/05/01 03:38:29;;;;;;;0.63;0.63;;;18.60;59.10;;;;;;5034164;28;45307;-71
2023/05/01 03:40:56;;;;;;;1.00;0.88;;;18.60;59.10;;;;;;5035963;28;45248;-70
2023/05/01 03:43:23;;;;;;;1.10;0.70;;;18.60;58.90;;;;;;5039941;28;45487;-71
2023/05/01 03:45:50;;;;;;;1.10;0.75;;;18.60;58.90;;;;;;5037730;28;46553;-71
2023/05/01 03:48:18;;;;;;;1.65;1.05;;;18.50;58.80;;;;;;5039447;28;45434;-71
2023/05/01 03:50:45;;;;;;;1.20;0.80;;;18.60;58.80;;;;;;5038991;28;45387;-71
2023/05/01 03:53:13;;;;;;;1.02;0.90;;;18.50;58.80;;;;;;5039240;27;45401;-71
2023/05/01 03:55:39;;;;;;;1.58;0.70;;;18.50;58.60;;;;;;5038889;28;45315;-71
2023/05/01 03:58:06;;;;;;;1.13;0.90;;;18.50;58.50;;;;;;5034827;28;45449;-71
2023/05/01 04:00:34;;;;;;;0.98;0.80;;;18.50;58.50;;;;;;5039487;28;45242;-72
2023/05/01 04:03:00;;;;;;;1.13;0.88;;;18.50;58.50;;;;;;5039461;28;45454;-71
2023/05/01 04:05:29;;;;;;;0.70;0.70;;;18.50;58.50;;;;;;5038509;28;46212;-71
2023/05/01 04:07:56;;;;;;;1.60;0.90;;;18.50;58.80;;;;;;5038993;28;45272;-70
2023/05/01 04:10:23;;;;;;;1.73;0.95;;;18.60;58.80;;;;;;5038962;28;45332;-71
2023/05/01 04:12:49;;;;;;;0.57;0.57;;;18.60;58.80;;;;;;5039390;27;45623;-71
2023/05/01 04:15:16;;;;;;;1.20;0.70;;;18.60;58.80;;;;;;5038037;28;46747;-71
2023/05/01 04:17:44;;;;;;;1.20;0.60;;;18.60;58.60;;;;;;5039010;28;45392;-71
2023/05/01 04:20:11;;;;;;;0.93;0.70;;;18.60;58.70;;;;;;5039131;28;45338;-71
2023/05/01 04:22:39;;;;;;;0.82;0.75;;;18.60;58.80;;;;;;5039116;28;45535;-71
2023/05/01 04:25:07;;;;;;;1.67;0.80;;;18.60;58.70;;;;;;5038056;28;46312;-71
2023/05/01 04:27:34;;;;;;;1.10;0.90;;;18.60;58.50;;;;;;5038986;28;45381;-71
2023/05/01 04:30:01;;;;;;;2.28;0.80;;;18.60;58.40;;;;;;5038932;28;45312;-71
2023/05/01 04:32:28;;;;;;;1.17;0.80;;;18.60;58.40;;;;;;5037457;28;45415;-71
2023/05/01 04:34:55;;;;;;;1.27;0.77;;;18.60;58.50;;;;;;5038146;28;46117;-71
2023/05/01 04:37:21;;;;;;;0.80;0.70;;;18.60;58.30;;;;;;5033321;28;45486;-71
2023/05/01 04:39:50;;;;;;;0.98;0.80;;;18.60;58.30;;;;;;5033865;28;45304;-70
2023/05/01 04:42:17;;;;;;;1.17;0.60;;;18.60;58.30;;;;;;5038916;28;45330;-71
2023/05/01 04:44:46;;;;;;;1.25;0.90;;;18.60;58.10;;;;;;5038104;28;46482;-72
2023/05/01 04:47:13;;;;;;;0.80;0.70;;;18.60;58.10;;;;;;5028724;28;45424;-71
2023/05/01 04:49:40;;;;;;;0.68;0.68;;;18.60;58.20;;;;;;5035888;28;45335;-71
2023/05/01 04:52:07;;;;;;;0.70;0.70;;;18.60;58.40;;;;;;5038464;28;45453;-71
2023/05/01 04:54:33;;;;;;;1.25;0.70;;;18.60;58.50;;;;;;5040855;28;46595;-71
2023/05/01 04:57:02;;;;;;;0.90;0.70;;;18.60;58.50;;;;;;5041312;28;45450;-71
2023/05/01 04:59:29;;;;;;;1.23;0.70;;;18.60;58.50;;;;;;5041780;28;45332;-71
2023/05/01 05:01:55;;;;;;;1.20;0.75;;;18.60;58.50;;;;;;5041852;28;45788;-71
2023/05/01 05:04:23;;;;;;;1.02;0.70;;;18.60;58.60;;;;;;5040421;28;46628;-71
2023/05/01 05:06:50;;;;;;;0.60;0.60;;;18.60;58.50;;;;;;5038322;28;45399;-71
2023/05/01 05:09:16;;;;;;;1.23;0.90;;;18.60;58.40;;;;;;5041613;28;45408;-71
2023/05/01 05:11:43;;;;;;;0.80;0.80;;;18.60;58.40;;;;;;5041639;28;45347;-72
2023/05/01 05:14:11;;;;;;;1.92;0.70;;;18.60;59.50;;;;;;5040930;28;47404;-71
2023/05/01 05:16:38;;;;;;;1.23;0.65;;;18.60;58.20;;;;;;5041279;28;45308;-71
2023/05/01 05:19:05;;;;;;;0.95;0.80;;;18.60;58.00;;;;;;5041613;28;45403;-71
2023/05/01 05:21:32;;;;;;;1.52;0.88;;;18.60;58.10;;;;;;5039329;28;45360;-71
2023/05/01 05:23:58;;;;;;;1.42;0.90;;;18.60;58.10;;;;;;5038901;28;46703;-71
2023/05/01 05:26:25;;;;;;;1.15;0.80;;;18.60;58.10;;;;;;5040677;28;45410;-71
2023/05/01 05:28:52;;;;;;;0.98;0.68;;;18.60;58.10;;;;;;5041198;28;45359;-71
2023/05/01 05:31:20;;;;;;;1.75;0.80;;;18.60;58.10;;;;;;5041413;28;45520;-71
2023/05/01 05:33:47;;;;;;;1.60;0.70;;;18.60;58.10;;;;;;5040877;28;46073;-71
2023/05/01 05:36:14;;;;;;;0.50;0.50;;;18.60;58.20;;;;;;5039489;28;45437;-71
2023/05/01 05:38:41;;;;;;;1.08;0.73;;;18.60;58.40;;;;;;5033365;28;45304;-71
2023/05/01 05:41:08;;;;;;;3.25;1.17;;;18.60;58.40;;;;;;5040457;28;45650;-71
2023/05/01 05:43:35;;;;;;;1.00;0.80;;;18.60;58.40;;;;;;5028242;28;46097;-71
2023/05/01 05:46:01;;;;;;;1.00;0.90;;;18.60;58.40;;;;;;5027299;27;45429;-71
2023/05/01 05:48:29;;;;;;;1.42;1.00;;;18.60;58.40;;;;;;5040114;28;45332;-71
2023/05/01 05:50:56;;;;;;;1.05;0.80;;;18.60;58.50;;;;;;5040489;28;45321;-71
2023/05/01 05:53:24;;;;;;;0.88;0.80;;;18.60;58.50;;;;;;5040799;28;45324;-72
2023/05/01 05:55:51;;;;;;;1.13;0.90;;;18.60;58.50;;;;;;5036050;28;45286;-71
2023/05/01 05:58:20;;;;;;;1.25;0.88;;;18.60;58.50;;;;;;5041376;28;45296;-71
2023/05/01 06:00:48;;;;;;;1.58;0.70;;;18.60;58.60;;;;;;5040814;27;45417;-71
2023/05/01 06:03:15;;;;;;;1.20;0.73;;;18.70;58.60;;;;;;5032335;28;46582;-71
2023/05/01 06:05:43;;;;;;;1.40;0.98;;;18.70;58.60;;;;;;5040481;28;45421;-71
2023/05/01 06:08:10;;;;;;;1.10;0.80;;;18.70;58.50;;;;;;5040862;28;45504;-72
2023/05/01 06:10:38;;;;;;;1.08;0.75;;;18.70;58.50;;;;;;5041279;28;45251;-71
2023/05/01 06:13:06;;;;;;;1.10;0.82;;;18.60;58.40;;;;;;5036187;28;47445;-71
2023/05/01 06:15:33;;;;;;;0.65;0.52;;;18.60;58.30;;;;;;5042330;28;45450;-72
2023/05/01 06:18:00;;;;;;;1.55;0.80;;;18.60;58.30;;;;;;5041057;28;45462;-71
2023/05/01 06:20:27;;;;;;;1.25;0.82;;;18.60;58.40;;;;;;5040889;27;45431;-71
2023/05/01 06:22:56;;;;;;;1.63;0.70;;;18.60;58.50;;;;;;5040396;28;46572;-71
2023/05/01 06:25:23;;;;;;;0.77;0.70;;;18.60;58.50;;;;;;5040014;28;46384;-71
2023/05/01 06:27:49;;;;;;;0.80;0.80;;;18.60;58.40;;;;;;5040396;27;45366;-70
2023/05/01 06:30:18;;;;;;;1.85;1.05;;;18.60;58.50;;;;;;5040299;28;45426;-72
2023/05/01 06:32:45;;;;;;;1.23;0.80;;;18.60;58.50;;;;;;5040613;28;46327;-71
2023/05/01 06:35:12;;;;;;;1.73;0.98;;;18.60;58.50;;;;;;5031729;28;45721;-71
2023/05/01 06:37:39;;;;;;;1.85;0.90;;;18.60;58.50;;;;;;5040644;28;45339;-71
2023/05/01 06:40:09;;;;;;;1.23;0.80;;;18.60;58.50;;;;;;5035760;28;45301;-71
2023/05/01 06:42:36;;;;;;;1.20;0.90;;;18.60;58.50;;;;;;5040010;28;46632;-71
2023/05/01 06:45:03;;;;;;;1.35;0.80;;;18.60;58.90;;;;;;5038840;27;45265;-72
2023/05/01 06:47:30;;;;;;;2.50;1.00;;;18.70;58.90;;;;;;5035470;28;45404;-71
2023/05/01 06:49:57;;;;;;;1.95;0.90;;;18.70;59.00;;;;;;5037716;28;45407;-71
2023/05/01 06:52:24;;;;;;;1.08;0.70;;;18.70;58.80;;;;;;5040173;28;47534;-71
2023/05/01 06:54:51;;;;;;;1.15;0.75;;;18.70;58.90;;;;;;5039301;28;45279;-71
2023/05/01 06:57:19;;;;;;;1.67;1.00;;;18.70;58.90;;;;;;5040609;28;45245;-71
2023/05/01 06:59:46;;;;;;;1.15;0.80;;;18.70;58.90;;;;;;5040296;28;45441;-72
2023/05/01 07:02:12;;;;;;;1.50;0.90;;;18.70;59.00;;;;;;5032048;28;46592;-71
2023/05/01 07:04:40;;;;;;;1.15;0.88;;;18.70;58.90;;;;;;5035417;28;46316;-71
2023/05/01 07:07:07;;;;;;;1.00;0.70;;;18.70;58.90;;;;;;5040471;28;45278;-71
2023/05/01 07:09:34;;;;;;;2.28;0.85;;;18.70;59.00;;;;;;5040729;28;45457;-72
2023/05/01 07:12:02;;;;;;;0.73;0.70;;;18.70;59.00;;;;;;5039865;28;47432;-71
2023/05/01 07:14:30;;;;;;;1.30;0.88;;;18.70;59.00;;;;;;5039306;28;45473;-71
2023/05/01 07:16:57;;;;;;;1.35;0.90;;;18.70;59.00;;;;;;5039118;28;45240;-70
2023/05/01 07:19:24;;;;;;;0.93;0.70;;;18.70;59.10;;;;;;5040271;27;45231;-71
2023/05/01 07:21:50;;;;;;;2.30;0.90;;;18.70;58.90;;;;;;5035313;28;47090;-71
2023/05/01 07:24:17;;;;;;;1.95;1.00;;;18.70;59.00;;;;;;5040055;28;45467;-71
2023/05/01 07:26:44;;;;;;;0.88;0.70;;;18.70;59.00;;;;;;5039670;28;45421;-71
2023/05/01 07:29:12;;;;;;;1.13;0.82;;;18.70;59.10;;;;;;5039970;28;45315;-72
2023/05/01 07:31:40;;;;;;;0.82;0.60;;;18.70;58.90;;;;;;5039604;28;46359;-71
2023/05/01 07:34:07;;;;;;;2.05;0.80;;;18.70;59.00;;;;;;5039614;28;45464;-71
2023/05/01 07:36:34;;;;;;;1.00;0.80;;;18.70;58.90;;;;;;5035488;28;45340;-71
2023/05/01 07:39:01;;;;;;;0.90;0.60;;;18.70;59.00;;;;;;5033017;28;45293;-71
2023/05/01 07:41:27;;;;;;;1.80;0.93;;;18.70;59.10;;;;;;5039518;28;47188;-71
2023/05/01 07:43:54;;;;;;;0.77;0.77;;;18.70;59.20;;;;;;5039614;28;45242;-71
2023/05/01 07:46:21;;;;;;;0.68;0.60;;;18.70;59.20;;;;;;5037979;28;45273;-71
2023/05/01 07:48:49;;;;;;;1.23;0.82;;;18.70;59.20;;;;;;5039054;28;45362;-71
2023/05/01 07:51:17;;;;;;;0.65;0.60;;;18.70;59.30;;;;;;5038818;28;46900;-71
2023/05/01 07:53:45;;;;;;;0.82;0.70;;;18.80;59.60;;;;;;5039544;28;45274;-70
2023/05/01 07:56:12;;;;;;;1.15;0.63;;;18.80;59.40;;;;;;5034796;28;45365;-71
2023/05/01 07:58:40;;;;;;;1.10;0.90;;;18.70;59.20;;;;;;5039383;28;45490;-70
2023/05/01 08:01:07;;;;;;;1.85;0.77;;;18.80;59.40;;;;;;5039199;28;47374;-71
2023/05/01 08:03:34;;;;;;;1.33;0.77;;;18.80;59.40;;;;;;5039365;28;45382;-71
2023/05/01 08:06:03;;;;;;;1.48;0.73;;;18.70;59.30;;;;;;5039493;28;45491;-70
2023/05/01 08:08:29;;;;;;;2.05;0.90;;;18.80;59.40;;;;;;5039670;27;45309;-71
2023/05/01 08:10:56;;;;;;;0.80;0.80;;;18.70;59.20;;;;;;5039152;28;46573;-71
2023/05/01 08:13:23;;;;;;;1.45;0.82;;;18.70;59.20;;;;;;5034278;28;45371;-71
2023/05/01 08:15:51;;;;;;;1.38;0.80;;;18.70;59.20;;;;;;5038662;28;45353;-71
2023/05/01 08:18:19;;;;;;;1.25;0.65;;;18.70;59.30;;;;;;5039040;28;45506;-71
2023/05/01 08:20:47;;;;;;;3.28;0.98;;;18.70;59.30;;;;;;5039243;28;46320;-70
2023/05/01 08:23:16;;;;;;;1.45;0.85;;;18.70;59.50;;;;;;5039182;28;45507;-71
2023/05/01 08:25:45;;;;;;;1.70;0.85;;;18.80;59.60;;;;;;5038214;28;45427;-71
2023/05/01 08:28:12;;;;;;;0.82;0.80;;;18.70;59.50;;;;;;5041547;28;45607;-71
2023/05/01 08:30:39;;;;;;;1.23;0.88;;;18.80;59.50;;;;;;5037071;28;48065;-71
2023/05/01 08:33:06;;;;;;;0.93;0.70;;;18.80;59.60;;;;;;5042104;28;45685;-71
2023/05/01 08:35:33;;;;;;;1.25;0.68;;;18.80;59.60;;;;;;5041856;28;45391;-70
2023/05/01 08:38:00;;;;;;;0.80;0.70;;;18.80;59.60;;;;;;5036294;28;45428;-71
2023/05/01 08:40:33;;;;;;;1.02;0.68;;;18.80;59.60;;;;;;5041645;28;48212;-71
2023/05/01 08:43:01;;;;;;;0.73;0.70;;;18.80;59.60;;;;;;5042012;28;45393;-71
2023/05/01 08:45:29;;;;;;;0.88;0.82;;;18.80;59.60;;;;;;5040005;27;45350;-71
2023/05/01 08:48:00;;;;;;;1.27;0.75;;;18.80;59.60;;;;;;5043894;28;45313;-71
2023/05/01 08:50:28;;;;;;;0.85;0.60;;;18.80;59.60;;;;;;5043140;28;47403;-71
2023/05/01 08:52:58;;;;;;;0.77;0.65;;;18.80;59.60;;;;;;5043437;28;46009;-70
2023/05/01 08:55:29;;;;;;;1.20;0.73;;;18.80;59.50;;;;;;5043283;28;45415;-71
2023/05/01 08:57:58;;;;;;;2.17;0.85;;;18.80;59.60;;;;;;5043344;28;45266;-71
2023/05/01 09:00:26;;;;;;;1.83;0.82;;;18.80;59.60;;;;;;5043613;28;47622;-71
2023/05/01 09:02:52;;;;;;;0.90;0.80;;;18.80;59.70;;;;;;5043571;28;45341;-70
2023/05/01 09:05:20;;;;;;;1.60;0.80;;;18.80;59.70;;;;;;5042965;28;45392;-70
2023/05/01 09:07:48;;;;;;;1.65;0.88;;;18.80;59.70;;;;;;5043429;28;45766;-71
2023/05/01 09:10:17;;;;;;;1.15;0.80;;;18.80;59.80;;;;;;5035406;28;47461;-70
2023/05/01 09:12:50;;;;;;;1.02;0.70;;;18.80;59.80;;;;;;5042966;28;46176;-70
2023/05/01 09:15:18;;;;;;;1.05;0.70;;;18.80;59.90;;;;;;5038060;28;45250;-71
2023/05/01 09:17:45;;;;;;;1.92;0.63;;;18.80;59.80;;;;;;5043042;27;45262;-71
2023/05/01 09:20:12;;;;;;;0.90;0.73;;;18.80;59.90;;;;;;5035670;28;47119;-71
2023/05/01 09:22:39;;;;;;;1.00;0.90;;;18.80;59.80;;;;;;5038278;28;45475;-71
2023/05/01 09:25:09;;;;;;;0.95;0.60;;;18.80;59.80;;;;;;5042311;28;45398;-72
2023/05/01 09:27:37;;;;;;;0.95;0.70;;;18.80;59.90;;;;;;5043540;28;45372;-70
2023/05/01 09:30:06;;;;;;;2.08;0.75;;;18.80;59.90;;;;;;5042754;28;46695;-71
2023/05/01 09:32:33;;;;;;;0.65;0.60;;;18.80;59.90;;;;;;5042946;28;45217;-70
2023/05/01 09:35:11;;;;;;;0.65;0.65;;;18.80;59.90;;;;;;5042502;28;45294;-71
2023/05/01 09:37:39;;;;;;;1.05;0.80;;;18.80;60.00;;;;;;5042897;28;45372;-70
2023/05/01 09:40:07;;;;;;;0.70;0.60;;;18.80;60.90;;;;;;5042017;28;48017;-70
2023/05/01 09:42:37;;;;;;;1.10;0.75;;;18.80;59.90;;;;;;5043029;28;45301;-71
2023/05/01 09:45:07;;;;;;;0.73;0.73;;;18.80;60.00;;;;;;5041801;28;45380;-71
2023/05/01 09:47:34;;;;;;;0.63;0.50;;;18.80;60.00;;;;;;5042598;28;45438;-71
2023/05/01 09:50:01;;;;;;;0.98;0.70;;;18.80;60.00;;;;;;5041938;27;46310;-70
2023/05/01 09:52:28;;;;;;;0.75;0.73;;;18.80;60.00;;;;;;5043081;28;45390;-71
2023/05/01 09:55:15;;;;;;;0.50;0.50;;;18.80;60.00;;;;;;5042154;27;45334;-71
2023/05/01 09:57:42;;;;;;;0.60;0.60;;;18.80;60.10;;;;;;5042521;28;45411;-71
2023/05/01 10:00:13;;;;;;;1.25;0.85;;;18.80;60.10;;;;;;5042455;27;45267;-71
2023/05/01 10:02:40;;;;;;;0.98;0.60;;;18.80;60.10;;;;;;5042725;28;45358;-70
2023/05/01 10:05:09;;;;;;;0.80;0.50;;;18.80;60.20;;;;;;5041747;28;45373;-71
2023/05/01 10:07:36;;;;;;;0.70;0.68;;;18.80;60.10;;;;;;5042277;28;45207;-71
2023/05/01 10:10:18;;;;;;;0.75;0.60;;;18.80;60.20;;;;;;5042448;28;47335;-71
2023/05/01 10:12:45;;;;;;;0.70;0.70;;;18.80;61.30;;;;;;5030945;28;45283;-71
2023/05/01 10:15:14;;;;;;;0.85;0.70;;;18.80;60.20;;;;;;5042114;28;45305;-70
2023/05/01 10:17:42;;;;;;;1.73;0.70;;;18.80;60.20;;;;;;5042544;28;45573;-71
2023/05/01 10:20:11;;;;;;;0.73;0.57;;;18.90;60.30;;;;;;5042320;28;48133;-71
2023/05/01 10:22:37;;;;;;;1.15;0.70;;;18.80;60.30;;;;;;5042323;28;45506;-71
2023/05/01 10:25:08;;;;;;;0.75;0.70;;;18.80;60.30;;;;;;5042007;28;45444;-70
2023/05/01 10:27:36;;;;;;;0.63;0.63;;;18.80;60.30;;;;;;5042793;27;45258;-70
2023/05/01 10:30:05;;;;;;;0.73;0.73;;;18.80;60.30;;;;;;5042290;28;45338;-71
2023/05/01 10:32:33;;;;;;;0.90;0.57;;;18.80;60.50;;;;;;5042335;28;45402;-70
2023/05/01 10:35:04;;;;;;;0.52;0.52;;;18.80;60.40;;;;;;5041550;28;45361;-71
2023/05/01 10:37:35;;;;;;;1.20;0.60;;;18.80;60.50;;;;;;5042590;28;45308;-71
2023/05/01 10:40:35;;;;;;;0.77;0.75;;;18.80;61.50;;;;;;5041979;28;48235;-71
2023/05/01 10:43:19;;;;;;;0.80;0.60;;;18.80;60.40;;;;;;5041909;28;45217;-71
2023/05/01 10:45:48;;;;;;;1.10;0.70;;;18.80;60.40;;;;;;5037546;28;45292;-71
2023/05/01 10:48:54;;;;;;;0.60;0.55;;;18.90;60.40;;;;;;5025690;28;45442;-71
2023/05/01 10:51:22;;;;;;;0.75;0.70;;;18.90;60.40;;;;;;5040384;28;46370;-71
2023/05/01 10:54:07;;;;;;;0.75;0.60;;;18.90;60.50;;;;;;5041642;28;45421;-70
2023/05/01 10:56:42;;;;;;;1.65;0.70;;;18.80;60.30;;;;;;5041266;28;45294;-71
2023/05/01 10:59:10;;;;;;;0.50;0.50;;;18.90;60.40;;;;;;5041907;28;45438;-71
2023/05/01 11:01:38;;;;;;;0.90;0.60;;;18.80;60.40;;;;;;5041814;28;46579;-71
2023/05/01 11:04:08;;;;;;;0.65;0.60;;;18.90;60.50;;;;;;5041318;27;45232;-71
2023/05/01 11:06:36;;;;;;;1.40;0.70;;;18.90;60.40;;;;;;5041972;28;45479;-70
2023/05/01 11:09:36;;;;;;;0.50;0.50;;;18.80;60.30;;;;;;5042073;27;45259;-71
2023/05/01 11:12:03;;;;;;;0.85;0.52;;;18.90;60.50;;;;;;5041480;28;46618;-70
2023/05/01 11:15:02;;;;;;;0.60;0.60;;;18.80;60.40;;;;;;5040970;28;46493;-71
2023/05/01 11:17:54;;;;;;;0.65;0.60;;;18.80;60.40;;;;;;5041441;28;45310;-71
2023/05/01 11:20:50;;;;;;;0.65;0.57;;;18.80;60.40;;;;;;5024841;28;45452;-71
2023/05/01 11:23:22;;;;;;;1.17;0.70;;;18.80;60.50;;;;;;5041671;27;46643;-71
2023/05/01 11:25:52;;;;;;;0.73;0.60;;;18.80;60.40;;;;;;5040790;28;46151;-71
2023/05/01 11:28:21;;;;;;;0.98;0.63;;;18.90;60.50;;;;;;5041655;27;45352;-71
2023/05/01 11:30:48;;;;;;;0.70;0.60;;;18.90;60.40;;;;;;5041451;28;45539;-71
2023/05/01 11:33:24;;;;;;;0.68;0.55;;;18.90;60.50;;;;;;5040935;28;46808;-71
2023/05/01 11:36:00;;;;;;;0.95;0.40;;;18.90;60.50;;;;;;5035847;28;45291;-71
2023/05/01 11:38:27;;;;;;;0.77;0.50;;;18.90;60.40;;;;;;5041630;28;45395;-71
2023/05/01 11:40:56;;;;;;;0.40;0.40;;;18.90;60.40;;;;;;5041475;28;45533;-71
2023/05/01 11:43:23;;;;;;;0.50;0.50;;;18.90;60.40;;;;;;5041285;28;47316;-70
2023/05/01 11:45:54;;;;;;;0.50;0.50;;;18.90;60.40;;;;;;5039778;27;45314;-71
2023/05/01 11:48:21;;;;;;;0.57;0.47;;;18.90;60.40;;;;;;5041511;28;45302;-70
2023/05/01 11:50:48;;;;;;;0.47;0.43;;;18.90;60.40;;;;;;5038942;28;45383;-71
2023/05/01 11:53:17;;;;;;;1.02;0.63;;;18.90;60.40;;;;;;5041240;28;47238;-71
2023/05/01 11:55:44;;;;;;;1.08;0.80;;;18.90;60.40;;;;;;5040910;28;45270;-71
2023/05/01 11:58:11;;;;;;;0.50;0.50;;;18.90;60.50;;;;;;5040706;28;45252;-71
2023/05/01 12:00:39;;;;;;;0.50;0.50;;;18.90;60.50;;;;;;5040781;28;45351;-72
2023/05/01 12:03:08;;;;;;;0.80;0.50;;;18.90;60.40;;;;;;5039732;28;46387;-71
2023/05/01 12:05:37;;;;;;;0.60;0.57;;;18.90;60.40;;;;;;5040806;27;45203;-71
2023/05/01 12:08:09;;;;;;;0.77;0.60;;;18.90;60.40;;;;;;5040924;28;45336;-71
2023/05/01 12:10:39;;;;;;;0.82;0.50;;;18.90;60.50;;;;;;5040981;28;45555;-71
2023/05/01 12:13:07;;;;;;;1.08;0.65;;;18.90;60.50;;;;;;5040636;27;46839;-71
2023/05/01 12:15:36;;;;;;;0.50;0.50;;;18.90;60.50;;;;;;5040743;27;45223;-71
2023/05/01 12:18:03;;;;;;;0.63;0.40;;;18.90;60.50;;;;;;5040946;28;45431;-70
2023/05/01 12:20:37;;;;;;;0.68;0.65;;;18.90;60.40;;;;;;5040907;28;45564;-70
2023/05/01 12:23:05;;;;;;;1.88;0.60;;;18.90;60.40;;;;;;5040495;28;47399;-71
2023/05/01 12:25:33;;;;;;;0.60;0.60;;;18.90;60.40;;;;;;5039986;28;45445;-71
2023/05/01 12:28:03;;;;;;;0.70;0.63;;;18.90;60.40;;;;;;5040503;28;45291;-71
2023/05/01 12:30:30;;;;;;;1.13;0.60;;;18.90;60.40;;;;;;5040400;28;45488;-70
2023/05/01 12:32:57;;;;;;;0.80;0.40;;;18.90;60.30;;;;;;5040104;28;47533;-71
2023/05/01 12:35:29;;;;;;;0.73;0.70;;;18.90;60.30;;;;;;5038382;27;45411;-71
2023/05/01 12:37:57;;;;;;;0.40;0.40;;;18.90;60.30;;;;;;5038222;28;45255;-70
2023/05/01 12:40:24;;;;;;;0.68;0.60;;;18.90;60.30;;;;;;5040561;27;45496;-71
2023/05/01 12:42:57;;;;;;;0.45;0.40;;;18.90;60.30;;;;;;5039958;28;47283;-71
2023/05/01 12:45:26;;;;;;;1.10;0.60;;;18.90;60.30;;;;;;5039448;28;45306;-71
2023/05/01 12:47:52;;;;;;;0.80;0.50;;;18.90;60.20;;;;;;5040579;28;45215;-70
2023/05/01 12:50:20;;;;;;;1.23;0.50;;;18.90;60.10;;;;;;5039069;28;45308;-71
2023/05/01 12:52:48;;;;;;;0.43;0.43;;;18.90;60.20;;;;;;5040043;28;48324;-71
2023/05/01 12:55:14;;;;;;;0.47;0.45;;;18.90;60.30;;;;;;5031587;28;45609;-71
2023/05/01 12:57:54;;;;;;;0.82;0.60;;;18.90;60.30;;;;;;5040026;28;45247;-71